JAL904 ROAH-RJTT
Flight info
| Callsign | JAL904 |
|---|---|
| Flight time | N/A |
| Altitude | 41000 |
| Route | AMAMI Y574 SHIBK Y57 SUKBO Y571 BILLY Y21 AKSEL |
| Aircraft | A359/H-SDE2E3GHIJ3J4J5LM1ORWXY/LB1D1 |
Departure
| Time | 2026-04-24 13:19 |
|---|---|
| Airport | Naha International Airport (ROAH) |
Arrival
| Time | N/A |
|---|---|
| Airport | Tokyo Haneda International Airport (RJTT) |
| Time | Latitude | Longitude | Altitude | Speed | Heading |
|---|---|---|---|---|---|
| 2026-04-24 12:55 | 26.20573 | 127.64928 | 28 ft | 0 kts | 146° |
| 2026-04-24 13:08 | 26.20585 | 127.64919 | 26 ft | 4 kts | 150° |
| 2026-04-24 13:08 | 26.20608 | 127.64908 | 26 ft | 4 kts | 179° |
| 2026-04-24 13:09 | 26.20638 | 127.64935 | 26 ft | 0 kts | 268° |
| 2026-04-24 13:11 | 26.20637 | 127.64924 | 26 ft | 4 kts | 267° |
| 2026-04-24 13:11 | 26.20635 | 127.64873 | 28 ft | 10 kts | 267° |
| 2026-04-24 13:12 | 26.20618 | 127.64793 | 28 ft | 11 kts | 237° |
| 2026-04-24 13:12 | 26.20546 | 127.64758 | 28 ft | 13 kts | 182° |
| 2026-04-24 13:12 | 26.20451 | 127.64761 | 28 ft | 15 kts | 178° |
| 2026-04-24 13:12 | 26.20339 | 127.64765 | 28 ft | 17 kts | 178° |
| 2026-04-24 13:13 | 26.20210 | 127.64772 | 28 ft | 20 kts | 176° |
| 2026-04-24 13:13 | 26.20064 | 127.64779 | 28 ft | 22 kts | 178° |
| 2026-04-24 13:13 | 26.19903 | 127.64786 | 28 ft | 24 kts | 178° |
| 2026-04-24 13:13 | 26.19726 | 127.64794 | 28 ft | 26 kts | 178° |
| 2026-04-24 13:14 | 26.19537 | 127.64803 | 28 ft | 28 kts | 176° |
| 2026-04-24 13:14 | 26.19336 | 127.64815 | 29 ft | 30 kts | 177° |
| 2026-04-24 13:14 | 26.19124 | 127.64824 | 29 ft | 31 kts | 178° |
| 2026-04-24 13:14 | 26.18901 | 127.64834 | 29 ft | 33 kts | 177° |
| 2026-04-24 13:15 | 26.18668 | 127.64845 | 29 ft | 34 kts | 177° |
| 2026-04-24 13:15 | 26.18449 | 127.64856 | 29 ft | 23 kts | 178° |
| 2026-04-24 13:15 | 26.18327 | 127.64862 | 29 ft | 7 kts | 177° |
| 2026-04-24 13:15 | 26.18278 | 127.64852 | 29 ft | 8 kts | 206° |
| 2026-04-24 13:16 | 26.18247 | 127.64793 | 28 ft | 10 kts | 258° |
| 2026-04-24 13:16 | 26.18246 | 127.64783 | 28 ft | 0 kts | 263° |
| 2026-04-24 13:16 | 26.18245 | 127.64776 | 28 ft | 4 kts | 263° |
| 2026-04-24 13:17 | 26.18244 | 127.64717 | 27 ft | 10 kts | 275° |
| 2026-04-24 13:17 | 26.18287 | 127.64660 | 27 ft | 10 kts | 344° |
| 2026-04-24 13:17 | 26.18335 | 127.64655 | 28 ft | 0 kts | 357° |
| 2026-04-24 13:18 | 26.18367 | 127.64653 | 28 ft | 19 kts | 357° |
| 2026-04-24 13:18 | 26.18737 | 127.64637 | 30 ft | 88 kts | 358° |
| 2026-04-24 13:18 | 26.19569 | 127.64600 | 28 ft | 149 kts | 358° |
| 2026-04-24 13:18 | 26.20670 | 127.64543 | 584 ft | 158 kts | 356° |
| 2026-04-24 13:19 | 26.21788 | 127.64446 | 1265 ft | 166 kts | 355° |
| 2026-04-24 13:19 | 26.22957 | 127.64314 | 1948 ft | 172 kts | 354° |
| 2026-04-24 13:19 | 26.24154 | 127.64086 | 2614 ft | 177 kts | 343° |
| 2026-04-24 13:19 | 26.25297 | 127.63559 | 3263 ft | 182 kts | 336° |
| 2026-04-24 13:20 | 26.26569 | 127.63011 | 3535 ft | 210 kts | 339° |
| 2026-04-24 13:20 | 26.28044 | 127.62385 | 3707 ft | 241 kts | 335° |
| 2026-04-24 13:20 | 26.29563 | 127.61532 | 4261 ft | 251 kts | 328° |
| 2026-04-24 13:20 | 26.31101 | 127.60577 | 5096 ft | 254 kts | 327° |
| 2026-04-24 13:21 | 26.32655 | 127.59609 | 5886 ft | 257 kts | 327° |
| 2026-04-24 13:21 | 26.34230 | 127.58635 | 6740 ft | 260 kts | 326° |
| 2026-04-24 13:21 | 26.35827 | 127.57651 | 7570 ft | 265 kts | 326° |
| 2026-04-24 13:21 | 26.37455 | 127.56650 | 8405 ft | 269 kts | 326° |
| 2026-04-24 13:22 | 26.39110 | 127.55636 | 9275 ft | 273 kts | 326° |
| 2026-04-24 13:22 | 26.40710 | 127.54484 | 10089 ft | 273 kts | 314° |
| 2026-04-24 13:22 | 26.41909 | 127.52833 | 10588 ft | 281 kts | 293° |
| 2026-04-24 13:22 | 26.42383 | 127.50674 | 10922 ft | 297 kts | 269° |
| 2026-04-24 13:23 | 26.41941 | 127.48402 | 11253 ft | 315 kts | 245° |
| 2026-04-24 13:23 | 26.40522 | 127.46477 | 11792 ft | 332 kts | 220° |
| 2026-04-24 13:23 | 26.38462 | 127.45233 | 12435 ft | 341 kts | 210° |
| 2026-04-24 13:23 | 26.36572 | 127.43665 | 13116 ft | 339 kts | 226° |
| 2026-04-24 13:24 | 26.34685 | 127.42041 | 13795 ft | 347 kts | 214° |
| 2026-04-24 13:24 | 26.32402 | 127.41057 | 14406 ft | 359 kts | 195° |
| 2026-04-24 13:24 | 26.29888 | 127.40846 | 15061 ft | 366 kts | 185° |
| 2026-04-24 13:24 | 26.27332 | 127.40878 | 15711 ft | 369 kts | 184° |
| 2026-04-24 13:25 | 26.24759 | 127.40928 | 16361 ft | 370 kts | 184° |
| 2026-04-24 13:25 | 26.22174 | 127.40970 | 17020 ft | 372 kts | 184° |
| 2026-04-24 13:25 | 26.19578 | 127.41007 | 17643 ft | 375 kts | 185° |
| 2026-04-24 13:25 | 26.16960 | 127.41038 | 18284 ft | 377 kts | 185° |
| 2026-04-24 13:26 | 26.14321 | 127.41068 | 18831 ft | 381 kts | 185° |
| 2026-04-24 13:26 | 26.11659 | 127.41282 | 19386 ft | 390 kts | 177° |
| 2026-04-24 13:26 | 26.09007 | 127.42099 | 19972 ft | 403 kts | 164° |
| 2026-04-24 13:26 | 26.06547 | 127.43624 | 20492 ft | 418 kts | 150° |
| 2026-04-24 13:27 | 26.04373 | 127.45921 | 21031 ft | 435 kts | 135° |
| 2026-04-24 13:27 | 26.02788 | 127.48786 | 21506 ft | 451 kts | 119° |
| 2026-04-24 13:27 | 26.01885 | 127.52219 | 21984 ft | 466 kts | 102° |
| 2026-04-24 13:27 | 26.01856 | 127.55816 | 22428 ft | 477 kts | 84° |
| 2026-04-24 13:28 | 26.02744 | 127.59388 | 22876 ft | 484 kts | 66° |
| 2026-04-24 13:28 | 26.04501 | 127.62602 | 23324 ft | 487 kts | 49° |
| 2026-04-24 13:28 | 26.06728 | 127.65465 | 23753 ft | 490 kts | 46° |
| 2026-04-24 13:28 | 26.09023 | 127.68286 | 24145 ft | 494 kts | 46° |
| 2026-04-24 13:29 | 26.11274 | 127.71212 | 24542 ft | 499 kts | 52° |
| 2026-04-24 13:29 | 26.12950 | 127.74543 | 24984 ft | 504 kts | 69° |
| 2026-04-24 13:29 | 26.13910 | 127.78347 | 25417 ft | 506 kts | 80° |
| 2026-04-24 13:29 | 26.14573 | 127.82151 | 25832 ft | 510 kts | 81° |
| 2026-04-24 13:30 | 26.15237 | 127.86047 | 26257 ft | 514 kts | 81° |
| 2026-04-24 13:30 | 26.16100 | 127.89930 | 26669 ft | 520 kts | 72° |
| 2026-04-24 13:30 | 26.17597 | 127.93596 | 27084 ft | 523 kts | 58° |
| 2026-04-24 13:30 | 26.19770 | 127.96832 | 27493 ft | 523 kts | 44° |
| 2026-04-24 13:31 | 26.22506 | 127.99475 | 27931 ft | 519 kts | 30° |
| 2026-04-24 13:31 | 26.25542 | 128.01636 | 28363 ft | 519 kts | 26° |
| 2026-04-24 13:31 | 26.28651 | 128.03722 | 28768 ft | 523 kts | 26° |
| 2026-04-24 13:31 | 26.31788 | 128.05822 | 29138 ft | 528 kts | 26° |
| 2026-04-24 13:32 | 26.34944 | 128.07945 | 29557 ft | 531 kts | 26° |
| 2026-04-24 13:32 | 26.38119 | 128.10088 | 29955 ft | 534 kts | 26° |
| 2026-04-24 13:32 | 26.41304 | 128.12242 | 30301 ft | 538 kts | 26° |
| 2026-04-24 13:32 | 26.44514 | 128.14417 | 30658 ft | 540 kts | 26° |
| 2026-04-24 13:33 | 26.47693 | 128.16574 | 31030 ft | 543 kts | 25° |
| 2026-04-24 13:33 | 26.50930 | 128.18771 | 31280 ft | 547 kts | 25° |
| 2026-04-24 13:33 | 26.54192 | 128.20987 | 31654 ft | 548 kts | 25° |
| 2026-04-24 13:33 | 26.57446 | 128.23201 | 32020 ft | 549 kts | 25° |
| 2026-04-24 13:34 | 26.60713 | 128.25424 | 32345 ft | 552 kts | 25° |
| 2026-04-24 13:34 | 26.64003 | 128.27664 | 32643 ft | 554 kts | 25° |
| 2026-04-24 13:34 | 26.67233 | 128.30053 | 32964 ft | 562 kts | 32° |
| 2026-04-24 13:34 | 26.70144 | 128.33032 | 33136 ft | 574 kts | 45° |
| 2026-04-24 13:35 | 26.72708 | 128.36471 | 33393 ft | 578 kts | 48° |
| 2026-04-24 13:35 | 26.75212 | 128.40005 | 33671 ft | 580 kts | 49° |
| 2026-04-24 13:35 | 26.76900 | 128.42400 | 33886 ft | 580 kts | 48° |
| 2026-04-24 13:35 | 26.80212 | 128.47090 | 34378 ft | 579 kts | 48° |
| 2026-04-24 13:36 | 26.81870 | 128.49434 | 34602 ft | 578 kts | 48° |
| 2026-04-24 13:36 | 26.84367 | 128.52960 | 34922 ft | 579 kts | 48° |
| 2026-04-24 13:36 | 26.86884 | 128.56514 | 35073 ft | 582 kts | 48° |
| 2026-04-24 13:36 | 26.89403 | 128.60072 | 35346 ft | 582 kts | 48° |
| 2026-04-24 13:37 | 26.92028 | 128.63492 | 35652 ft | 577 kts | 40° |
| 2026-04-24 13:37 | 26.95063 | 128.66385 | 35930 ft | 566 kts | 28° |
| 2026-04-24 13:37 | 26.98409 | 128.68653 | 36282 ft | 557 kts | 22° |
| 2026-04-24 13:37 | 27.01814 | 128.70729 | 36593 ft | 556 kts | 21° |
| 2026-04-24 13:38 | 27.05176 | 128.72753 | 36800 ft | 557 kts | 21° |
| 2026-04-24 13:38 | 27.08596 | 128.74818 | 37074 ft | 557 kts | 21° |
| 2026-04-24 13:38 | 27.12011 | 128.76886 | 37356 ft | 557 kts | 21° |
| 2026-04-24 13:38 | 27.15413 | 128.78949 | 37639 ft | 556 kts | 21° |
| 2026-04-24 13:39 | 27.18824 | 128.81022 | 37909 ft | 556 kts | 21° |
| 2026-04-24 13:39 | 27.22227 | 128.83091 | 38208 ft | 556 kts | 20° |
| 2026-04-24 13:39 | 27.25631 | 128.85162 | 38318 ft | 558 kts | 20° |
| 2026-04-24 13:39 | 27.29059 | 128.87250 | 38533 ft | 559 kts | 20° |
| 2026-04-24 13:40 | 27.32475 | 128.89334 | 38756 ft | 558 kts | 20° |
| 2026-04-24 13:40 | 27.35872 | 128.91409 | 39027 ft | 555 kts | 21° |
| 2026-04-24 13:40 | 27.39218 | 128.93453 | 39264 ft | 554 kts | 21° |
| 2026-04-24 13:40 | 27.42604 | 128.95522 | 39472 ft | 553 kts | 20° |
| 2026-04-24 13:41 | 27.45994 | 128.97593 | 39590 ft | 555 kts | 20° |
| 2026-04-24 13:41 | 27.49388 | 128.99669 | 39753 ft | 555 kts | 20° |
| 2026-04-24 13:41 | 27.52771 | 129.01741 | 39949 ft | 554 kts | 20° |
| 2026-04-24 13:41 | 27.56154 | 129.03815 | 40145 ft | 553 kts | 20° |
| 2026-04-24 13:42 | 27.59531 | 129.05886 | 40334 ft | 552 kts | 20° |
| 2026-04-24 13:42 | 27.62905 | 129.07956 | 40514 ft | 551 kts | 20° |
| 2026-04-24 13:42 | 27.66273 | 129.10024 | 40670 ft | 551 kts | 20° |
| 2026-04-24 13:42 | 27.69637 | 129.12091 | 40828 ft | 550 kts | 20° |
| 2026-04-24 13:43 | 27.72988 | 129.14154 | 40974 ft | 549 kts | 21° |
| 2026-04-24 13:43 | 27.76337 | 129.16215 | 41016 ft | 549 kts | 21° |
| 2026-04-24 13:43 | 27.83036 | 129.20341 | 41027 ft | 549 kts | 20° |
| 2026-04-24 13:44 | 27.89769 | 129.24491 | 41029 ft | 551 kts | 20° |
| 2026-04-24 13:44 | 27.94223 | 129.27242 | 41011 ft | 552 kts | 20° |
| 2026-04-24 13:45 | 28.09757 | 129.36858 | 41009 ft | 553 kts | 20° |
| 2026-04-24 13:46 | 28.16514 | 129.41051 | 41019 ft | 553 kts | 20° |
| 2026-04-24 13:46 | 28.23258 | 129.45246 | 41008 ft | 553 kts | 20° |
| 2026-04-24 13:47 | 28.30013 | 129.49448 | 40977 ft | 553 kts | 20° |
| 2026-04-24 13:47 | 28.36728 | 129.53775 | 41013 ft | 560 kts | 26° |
| 2026-04-24 13:48 | 28.39793 | 129.56593 | 40974 ft | 573 kts | 39° |
| 2026-04-24 13:48 | 28.42350 | 129.60090 | 40957 ft | 581 kts | 53° |
| 2026-04-24 13:48 | 28.44275 | 129.64152 | 40966 ft | 586 kts | 67° |
| 2026-04-24 13:48 | 28.45449 | 129.68596 | 40966 ft | 586 kts | 81° |
| 2026-04-24 13:49 | 28.46644 | 129.77740 | 40966 ft | 587 kts | 85° |
| 2026-04-24 13:49 | 28.47557 | 129.86903 | 41018 ft | 586 kts | 86° |
| 2026-04-24 13:50 | 28.48475 | 129.96105 | 40978 ft | 587 kts | 85° |
| 2026-04-24 13:50 | 28.49441 | 130.05333 | 40971 ft | 587 kts | 85° |
| 2026-04-24 13:51 | 28.51188 | 130.14391 | 40992 ft | 587 kts | 66° |
| 2026-04-24 13:51 | 28.53011 | 130.18511 | 41007 ft | 583 kts | 55° |
| 2026-04-24 13:51 | 28.55168 | 130.22411 | 41002 ft | 582 kts | 53° |
| 2026-04-24 13:52 | 28.59741 | 130.30023 | 41003 ft | 582 kts | 51° |
| 2026-04-24 13:52 | 28.64397 | 130.37576 | 41004 ft | 583 kts | 51° |
| 2026-04-24 13:53 | 28.69017 | 130.45156 | 41001 ft | 583 kts | 52° |
| 2026-04-24 13:53 | 28.73579 | 130.52721 | 41003 ft | 583 kts | 52° |
| 2026-04-24 13:54 | 28.78194 | 130.60395 | 40998 ft | 584 kts | 52° |
| 2026-04-24 13:54 | 28.82779 | 130.68032 | 40998 ft | 584 kts | 52° |
| 2026-04-24 13:55 | 28.87334 | 130.75633 | 41005 ft | 583 kts | 51° |
| 2026-04-24 13:55 | 28.91916 | 130.83287 | 41000 ft | 584 kts | 51° |
| 2026-04-24 13:56 | 28.96495 | 130.90949 | 40985 ft | 584 kts | 51° |
| 2026-04-24 13:56 | 29.01071 | 130.98619 | 41013 ft | 584 kts | 51° |
| 2026-04-24 13:57 | 29.05642 | 131.06297 | 40999 ft | 584 kts | 51° |
| 2026-04-24 13:57 | 29.10207 | 131.13979 | 40955 ft | 584 kts | 52° |
| 2026-04-24 13:58 | 29.14773 | 131.21678 | 40990 ft | 584 kts | 52° |
| 2026-04-24 13:58 | 29.19334 | 131.29380 | 40993 ft | 584 kts | 52° |
| 2026-04-24 13:59 | 29.23859 | 131.37036 | 40983 ft | 584 kts | 52° |
| 2026-04-24 13:59 | 29.28404 | 131.44741 | 40995 ft | 583 kts | 52° |
| 2026-04-24 14:00 | 29.32954 | 131.52467 | 40994 ft | 585 kts | 52° |
| 2026-04-24 14:00 | 29.37495 | 131.60195 | 40988 ft | 584 kts | 52° |
| 2026-04-24 14:01 | 29.42018 | 131.67920 | 40993 ft | 584 kts | 52° |
| 2026-04-24 14:01 | 29.46561 | 131.75680 | 40989 ft | 585 kts | 52° |
| 2026-04-24 14:02 | 29.51062 | 131.83386 | 40981 ft | 585 kts | 52° |
| 2026-04-24 14:02 | 29.55585 | 131.91144 | 40986 ft | 585 kts | 52° |
| 2026-04-24 14:03 | 29.60117 | 131.98935 | 40952 ft | 586 kts | 52° |
| 2026-04-24 14:03 | 29.64649 | 132.06710 | 41023 ft | 583 kts | 51° |
| 2026-04-24 14:04 | 29.69656 | 132.14047 | 40981 ft | 582 kts | 46° |
| 2026-04-24 14:04 | 29.74742 | 132.21192 | 40961 ft | 582 kts | 45° |
| 2026-04-24 14:05 | 29.79897 | 132.28394 | 40970 ft | 582 kts | 45° |
| 2026-04-24 14:05 | 29.85042 | 132.35613 | 40960 ft | 584 kts | 45° |
| 2026-04-24 14:06 | 29.90179 | 132.42854 | 40941 ft | 584 kts | 46° |
| 2026-04-24 14:06 | 29.95317 | 132.50114 | 40949 ft | 584 kts | 46° |
| 2026-04-24 14:07 | 30.00454 | 132.57384 | 40944 ft | 585 kts | 46° |
| 2026-04-24 14:07 | 30.05591 | 132.64668 | 40996 ft | 585 kts | 46° |
| 2026-04-24 14:08 | 30.10736 | 132.71976 | 40938 ft | 587 kts | 46° |
| 2026-04-24 14:08 | 30.15891 | 132.79310 | 40937 ft | 588 kts | 46° |
| 2026-04-24 14:09 | 30.21036 | 132.86646 | 40951 ft | 588 kts | 46° |
| 2026-04-24 14:09 | 30.26192 | 132.94009 | 40939 ft | 589 kts | 46° |
| 2026-04-24 14:10 | 30.31348 | 133.01387 | 40939 ft | 589 kts | 46° |
| 2026-04-24 14:10 | 30.36466 | 133.08724 | 40947 ft | 589 kts | 46° |
| 2026-04-24 14:11 | 30.41611 | 133.16114 | 40950 ft | 590 kts | 46° |
| 2026-04-24 14:12 | 30.49332 | 133.27229 | 40944 ft | 589 kts | 46° |
| 2026-04-24 14:12 | 30.54459 | 133.34627 | 40948 ft | 588 kts | 46° |
| 2026-04-24 14:13 | 30.59585 | 133.42037 | 40969 ft | 588 kts | 46° |
| 2026-04-24 14:13 | 30.64709 | 133.49456 | 40954 ft | 588 kts | 46° |
| 2026-04-24 14:14 | 30.69818 | 133.56869 | 40953 ft | 588 kts | 46° |
| 2026-04-24 14:14 | 30.77484 | 133.68017 | 40955 ft | 590 kts | 46° |
| 2026-04-24 14:15 | 30.82564 | 133.75425 | 40961 ft | 589 kts | 46° |
| 2026-04-24 14:15 | 30.87680 | 133.82893 | 40965 ft | 591 kts | 46° |
| 2026-04-24 14:16 | 30.92811 | 133.90394 | 40960 ft | 591 kts | 46° |
| 2026-04-24 14:17 | 31.00487 | 134.01647 | 40964 ft | 592 kts | 46° |
| 2026-04-24 14:17 | 31.08155 | 134.12922 | 40965 ft | 590 kts | 47° |
| 2026-04-24 14:18 | 31.13271 | 134.20461 | 40964 ft | 593 kts | 47° |
| 2026-04-24 14:18 | 31.18398 | 134.28029 | 40968 ft | 594 kts | 47° |
| 2026-04-24 14:19 | 31.23523 | 134.35613 | 40980 ft | 594 kts | 47° |
| 2026-04-24 14:19 | 31.28619 | 134.43166 | 40947 ft | 597 kts | 47° |
| 2026-04-24 14:20 | 31.33749 | 134.50787 | 40994 ft | 595 kts | 47° |
| 2026-04-24 14:20 | 31.38875 | 134.58416 | 40975 ft | 597 kts | 47° |
| 2026-04-24 14:21 | 31.44002 | 134.66061 | 40975 ft | 596 kts | 47° |